Time;durP1;ratioP1;P1;durP2;ratioP2;P2;SDS_P1;SDS_P2;PMS_P1;PMS_P2;Temp;Humidity;BMP_temperature;BMP_pressure;BME280_temperature;BME280_humidity;BME280_pressure;Samples;Min_cycle;Max_cycle;Signal;HPM_P1;HPM_P2
2022/04/16 00:02:01;;;;;;;8.07;4.35;;;13.70;90.10;;;;;;5009753;28;20068;-73
2022/04/16 00:04:29;;;;;;;10.18;5.07;;;13.60;90.10;;;;;;5004550;28;20396;-72
2022/04/16 00:06:56;;;;;;;13.40;5.60;;;13.50;90.10;;;;;;4992352;28;20034;-72
2022/04/16 00:09:23;;;;;;;9.20;4.68;;;13.70;90.00;;;;;;4997584;28;20463;-73
2022/04/16 00:11:48;;;;;;;14.98;5.70;;;13.80;89.80;;;;;;4991900;28;20093;-73
2022/04/16 00:14:19;;;;;;;13.70;6.18;;;13.70;89.50;;;;;;5006033;28;20045;-73
2022/04/16 00:16:45;;;;;;;11.98;5.07;;;13.70;89.80;;;;;;5011416;28;20337;-73
2022/04/16 00:19:11;;;;;;;11.93;5.60;;;13.60;89.90;;;;;;4995298;28;20109;-72
2022/04/16 00:21:38;;;;;;;14.20;6.03;;;13.70;89.90;;;;;;4992118;28;20054;-72
2022/04/16 00:24:04;;;;;;;9.90;5.47;;;13.80;89.60;;;;;;4992646;28;20393;-73
2022/04/16 00:26:30;;;;;;;12.93;5.45;;;14.10;88.70;;;;;;4991863;28;20034;-72
2022/04/16 00:28:58;;;;;;;9.57;5.03;;;14.10;88.80;;;;;;5004923;28;20030;-72
2022/04/16 00:31:23;;;;;;;11.05;5.53;;;14.00;88.50;;;;;;5011430;28;20112;-72
2022/04/16 00:33:49;;;;;;;12.88;6.97;;;14.00;89.10;;;;;;5009524;28;20121;-73
2022/04/16 00:36:15;;;;;;;15.98;6.95;;;14.00;89.40;;;;;;5011923;28;20057;-73
2022/04/16 00:38:41;;;;;;;11.23;5.25;;;13.90;89.20;;;;;;5009365;28;20038;-72
2022/04/16 00:41:07;;;;;;;10.95;5.32;;;13.80;89.20;;;;;;4995369;28;20496;-72
2022/04/16 00:43:33;;;;;;;12.02;5.82;;;13.50;89.80;;;;;;5004187;28;20030;-73
2022/04/16 00:45:59;;;;;;;13.05;5.40;;;13.60;89.60;;;;;;4995735;28;20018;-72
2022/04/16 00:48:25;;;;;;;8.48;4.85;;;13.70;89.40;;;;;;5002997;28;20172;-73
2022/04/16 00:50:54;;;;;;;9.35;5.03;;;13.30;90.00;;;;;;5014707;28;20037;-73
2022/04/16 00:53:20;;;;;;;10.10;4.78;;;13.20;90.10;;;;;;5011503;28;20424;-72
2022/04/16 00:55:47;;;;;;;12.82;5.00;;;13.40;89.90;;;;;;5014517;28;20038;-73
2022/04/16 00:58:12;;;;;;;9.32;4.50;;;13.30;89.40;;;;;;5007624;28;20059;-73
2022/04/16 01:00:38;;;;;;;12.20;5.03;;;13.30;89.50;;;;;;4998925;28;20037;-73
2022/04/16 01:03:05;;;;;;;9.48;4.18;;;13.60;88.60;;;;;;5014420;28;20037;-73
2022/04/16 01:05:31;;;;;;;11.00;4.63;;;13.50;88.70;;;;;;5010775;28;20054;-72
2022/04/16 01:07:58;;;;;;;10.63;4.57;;;13.40;89.20;;;;;;4995431;28;20015;-72
2022/04/16 01:10:31;;;;;;;11.65;5.38;;;13.50;88.90;;;;;;5013911;28;20480;-73
2022/04/16 01:12:58;;;;;;;11.38;5.47;;;13.70;88.30;;;;;;5013486;28;20381;-73
2022/04/16 01:15:25;;;;;;;10.80;5.43;;;13.70;88.10;;;;;;5013292;28;20045;-73
2022/04/16 01:17:51;;;;;;;9.20;5.43;;;13.70;88.60;;;;;;5010523;28;20503;-73
2022/04/16 01:20:18;;;;;;;11.55;5.20;;;13.50;89.00;;;;;;4993860;28;20014;-73
2022/04/16 01:22:45;;;;;;;10.18;5.18;;;13.30;89.60;;;;;;4995342;28;20115;-72
2022/04/16 01:25:11;;;;;;;14.63;6.93;;;13.50;89.20;;;;;;4994212;28;20018;-72
2022/04/16 01:27:43;;;;;;;10.00;5.53;;;13.60;89.00;;;;;;4994317;28;20516;-72
2022/04/16 01:30:10;;;;;;;9.90;5.40;;;13.50;89.40;;;;;;4994431;28;20023;-72
2022/04/16 01:32:36;;;;;;;10.02;6.10;;;13.70;89.50;;;;;;4994233;28;20504;-73
2022/04/16 01:35:04;;;;;;;9.40;5.30;;;13.70;89.10;;;;;;5012743;28;20034;-72
2022/04/16 01:37:31;;;;;;;9.00;5.60;;;13.60;89.10;;;;;;5011472;28;20034;-72
2022/04/16 01:39:58;;;;;;;11.27;5.30;;;13.40;90.00;;;;;;5011740;28;20030;-73
2022/04/16 01:42:24;;;;;;;10.20;5.50;;;13.30;90.30;;;;;;5012465;28;20029;-73
2022/04/16 01:44:51;;;;;;;14.80;6.43;;;13.20;90.20;;;;;;4994833;28;20507;-73
2022/04/16 01:47:17;;;;;;;9.25;5.05;;;13.20;90.10;;;;;;4993991;28;20082;-72
2022/04/16 01:49:43;;;;;;;11.27;5.35;;;13.10;90.00;;;;;;4994187;28;20072;-73
2022/04/16 01:52:09;;;;;;;12.43;5.38;;;13.00;90.10;;;;;;4996424;28;20485;-73
2022/04/16 01:54:36;;;;;;;9.75;4.57;;;12.90;90.20;;;;;;5011489;28;20037;-73
2022/04/16 01:57:02;;;;;;;8.10;3.90;;;13.00;89.60;;;;;;4998630;28;20030;-72
2022/04/16 01:59:29;;;;;;;10.00;4.53;;;13.10;89.30;;;;;;4993763;28;20023;-73
2022/04/16 02:01:56;;;;;;;8.57;4.00;;;13.30;88.90;;;;;;5006155;28;20103;-73
2022/04/16 02:04:22;;;;;;;10.77;4.88;;;13.30;88.70;;;;;;4996620;28;20113;-73
2022/04/16 02:06:51;;;;;;;14.20;4.90;;;13.40;88.30;;;;;;5004902;28;20038;-72
2022/04/16 02:09:19;;;;;;;10.65;4.10;;;13.30;88.40;;;;;;5013369;28;20109;-72
2022/04/16 02:11:44;;;;;;;12.23;5.72;;;13.30;88.80;;;;;;5010962;28;20030;-73
2022/04/16 02:14:10;;;;;;;11.30;5.22;;;13.20;90.20;;;;;;5012998;28;20080;-73
2022/04/16 02:16:36;;;;;;;12.73;4.70;;;13.30;89.90;;;;;;4994367;28;20433;-73
2022/04/16 02:19:01;;;;;;;10.50;4.57;;;13.20;89.10;;;;;;4993372;28;20023;-73
2022/04/16 02:21:28;;;;;;;9.05;3.72;;;13.20;88.70;;;;;;5009896;28;20034;-73
2022/04/16 02:23:54;;;;;;;6.10;3.53;;;13.30;88.20;;;;;;4993728;28;20038;-73
2022/04/16 02:26:20;;;;;;;11.93;4.50;;;13.30;87.90;;;;;;5007869;28;20041;-72
2022/04/16 02:28:48;;;;;;;9.35;4.15;;;13.10;89.10;;;;;;5012046;28;20464;-73
2022/04/16 02:31:14;;;;;;;10.98;4.38;;;13.00;89.30;;;;;;4998593;28;20073;-72
2022/04/16 02:33:40;;;;;;;11.35;4.18;;;13.00;89.20;;;;;;4993718;28;20120;-73
2022/04/16 02:36:07;;;;;;;7.88;4.15;;;13.00;89.10;;;;;;5004997;28;20045;-72
2022/04/16 02:38:33;;;;;;;10.20;3.85;;;13.30;87.90;;;;;;5012335;28;20034;-73
2022/04/16 02:40:59;;;;;;;11.07;3.85;;;13.20;87.80;;;;;;5001531;28;20030;-73
2022/04/16 02:43:24;;;;;;;8.93;3.70;;;13.20;87.70;;;;;;5005116;28;20081;-73
2022/04/16 02:48:34;;;;;;;6.60;2.75;;;13.50;87.00;;;;;;5007685;28;20503;-72
2022/04/16 02:51:00;;;;;;;5.95;3.28;;;13.50;86.00;;;;;;5002152;28;20038;-72
2022/04/16 02:53:26;;;;;;;7.47;3.22;;;13.30;86.20;;;;;;4992838;28;20029;-73
2022/04/16 02:55:55;;;;;;;10.07;2.95;;;13.30;86.00;;;;;;5000365;28;20037;-73
2022/04/16 02:58:21;;;;;;;8.02;3.60;;;13.20;86.70;;;;;;5011959;28;20077;-72
2022/04/16 03:00:47;;;;;;;9.73;2.58;;;13.30;86.20;;;;;;5006264;28;20034;-72
2022/04/16 03:03:13;;;;;;;5.65;2.40;;;13.00;86.60;;;;;;4991041;28;20038;-73
2022/04/16 03:05:38;;;;;;;6.32;2.85;;;13.10;85.90;;;;;;4993057;28;20252;-73
2022/04/16 03:08:07;;;;;;;5.22;2.33;;;13.20;86.10;;;;;;5007178;28;20037;-73
2022/04/16 03:10:34;;;;;;;6.65;2.58;;;13.10;84.70;;;;;;5000229;28;20405;-73
2022/04/16 03:13:00;;;;;;;10.00;2.58;;;13.20;84.30;;;;;;4987451;28;20035;-73
2022/04/16 03:18:11;;;;;;;8.52;2.63;;;13.20;84.30;;;;;;4992683;28;20069;-74
2022/04/16 03:20:40;;;;;;;7.43;2.75;;;13.20;84.60;;;;;;4992079;28;20065;-73
2022/04/16 03:23:06;;;;;;;5.43;2.28;;;13.20;84.70;;;;;;5004644;28;20068;-74
2022/04/16 03:25:32;;;;;;;5.43;2.28;;;13.20;84.80;;;;;;4997240;28;20092;-73
2022/04/16 03:27:58;;;;;;;6.00;3.25;;;13.00;85.10;;;;;;4984523;28;20030;-73
2022/04/16 03:30:24;;;;;;;6.32;2.83;;;13.00;84.80;;;;;;4990941;28;20093;-73
2022/04/16 03:32:52;;;;;;;6.38;2.30;;;13.00;85.00;;;;;;5007610;28;20073;-73
2022/04/16 03:35:19;;;;;;;8.20;2.25;;;12.90;85.10;;;;;;5002606;28;20038;-72
2022/04/16 03:37:45;;;;;;;6.15;2.22;;;12.60;86.00;;;;;;4987918;28;20034;-73
2022/04/16 03:40:15;;;;;;;7.68;2.65;;;12.50;86.10;;;;;;4988689;28;20049;-73
2022/04/16 03:42:58;;;;;;;8.68;2.40;;;12.60;86.30;;;;;;4987869;28;20041;-73
2022/04/16 03:45:27;;;;;;;7.13;2.47;;;12.70;85.60;;;;;;4987778;28;20084;-72
2022/04/16 03:47:54;;;;;;;4.72;1.88;;;12.80;85.80;;;;;;4985346;28;20030;-73
2022/04/16 03:50:21;;;;;;;3.75;1.88;;;12.80;85.00;;;;;;4988106;28;20089;-73
2022/04/16 03:52:49;;;;;;;5.10;2.13;;;12.70;84.80;;;;;;5005980;28;20038;-73
2022/04/16 04:00:45;;;;;;;5.13;2.85;;;12.80;84.60;;;;;;4995937;28;20037;-73
2022/04/16 04:03:11;;;;;;;6.80;2.40;;;13.30;84.50;;;;;;4984970;28;20088;-73
2022/04/16 04:05:38;;;;;;;5.43;2.25;;;13.80;83.30;;;;;;4990697;28;20072;-73
2022/04/16 04:08:07;;;;;;;4.93;1.77;;;13.80;82.10;;;;;;5003852;28;20109;-73
2022/04/16 04:10:34;;;;;;;5.15;2.50;;;13.90;81.90;;;;;;5002432;28;20030;-73
2022/04/16 04:13:00;;;;;;;4.65;2.35;;;14.20;80.90;;;;;;5007604;28;20111;-73
2022/04/16 04:15:27;;;;;;;5.30;2.42;;;14.20;80.80;;;;;;5002421;28;20042;-73
2022/04/16 04:17:53;;;;;;;6.25;2.53;;;14.30;80.40;;;;;;4989055;28;20030;-73
2022/04/16 04:20:19;;;;;;;8.48;3.30;;;14.50;80.00;;;;;;4989506;28;20041;-73
2022/04/16 04:22:45;;;;;;;6.55;1.83;;;14.20;80.60;;;;;;5000803;28;20404;-73
2022/04/16 04:25:10;;;;;;;5.80;2.00;;;14.40;80.20;;;;;;5006689;28;20071;-73
2022/04/16 04:27:36;;;;;;;4.22;1.98;;;14.40;80.30;;;;;;5008046;28;20667;-73
2022/04/16 04:30:02;;;;;;;4.25;1.92;;;14.30;80.30;;;;;;4988877;28;20069;-73
2022/04/16 04:32:28;;;;;;;4.00;1.77;;;14.50;79.70;;;;;;4988888;28;20034;-73
2022/04/16 04:34:54;;;;;;;4.80;1.75;;;14.70;79.10;;;;;;4989814;28;20377;-73
2022/04/16 04:37:20;;;;;;;5.97;2.42;;;14.60;79.80;;;;;;4988768;28;20034;-73
2022/04/16 04:39:46;;;;;;;7.95;2.22;;;14.50;79.60;;;;;;5004362;28;20030;-73
2022/04/16 04:42:11;;;;;;;4.43;1.83;;;14.30;79.70;;;;;;5008229;28;20053;-72
2022/04/16 04:44:37;;;;;;;4.05;1.60;;;14.20;80.00;;;;;;4993607;28;20135;-73
2022/04/16 04:47:03;;;;;;;6.10;1.77;;;14.10;79.90;;;;;;4988184;28;20105;-73
2022/04/16 04:49:29;;;;;;;4.32;1.90;;;14.20;79.50;;;;;;5000485;28;20104;-73
2022/04/16 04:51:54;;;;;;;3.60;1.77;;;14.20;79.50;;;;;;5007476;28;20192;-72
2022/04/16 04:54:21;;;;;;;5.70;2.20;;;13.90;79.80;;;;;;5002254;28;20034;-74
2022/04/16 04:56:47;;;;;;;4.85;1.98;;;14.00;79.70;;;;;;4992358;28;20038;-73
2022/04/16 04:59:13;;;;;;;4.45;1.98;;;13.70;80.40;;;;;;5007540;28;20037;-72
2022/04/16 05:01:39;;;;;;;4.80;1.95;;;13.40;81.10;;;;;;4994359;28;20516;-73
2022/04/16 05:04:05;;;;;;;3.10;1.20;;;13.50;81.00;;;;;;4997171;28;20025;-73
2022/04/16 05:06:30;;;;;;;4.45;1.88;;;13.50;81.50;;;;;;5007654;28;20489;-73
2022/04/16 05:08:56;;;;;;;4.50;1.30;;;13.40;81.00;;;;;;4999468;28;20038;-73
2022/04/16 05:11:22;;;;;;;5.60;1.48;;;13.30;81.60;;;;;;4988035;28;20112;-73
2022/04/16 05:13:47;;;;;;;3.45;1.63;;;13.30;80.50;;;;;;4988429;28;20038;-73
2022/04/16 05:16:14;;;;;;;3.95;1.42;;;13.20;81.00;;;;;;4996878;28;20038;-73
2022/04/16 05:18:41;;;;;;;5.57;2.13;;;13.20;81.40;;;;;;5002375;28;20026;-73
2022/04/16 05:21:07;;;;;;;4.82;1.63;;;13.40;81.20;;;;;;4987712;28;20105;-73
2022/04/16 05:23:32;;;;;;;5.28;2.00;;;13.50;81.00;;;;;;4990225;28;20113;-73
2022/04/16 05:25:58;;;;;;;4.45;1.88;;;13.70;80.80;;;;;;5007860;28;20441;-73
2022/04/16 05:28:24;;;;;;;4.70;1.80;;;13.80;80.70;;;;;;5004738;28;20026;-73
2022/04/16 05:30:54;;;;;;;7.25;2.10;;;13.50;81.00;;;;;;4987544;28;20038;-73
2022/04/16 05:36:07;;;;;;;5.72;1.77;;;13.40;81.30;;;;;;4987679;28;20096;-72
2022/04/16 05:38:33;;;;;;;4.85;1.60;;;13.40;81.30;;;;;;4987653;28;20034;-73
2022/04/16 05:40:59;;;;;;;4.25;1.45;;;13.40;81.60;;;;;;4987254;28;20524;-74
2022/04/16 05:43:25;;;;;;;4.85;1.80;;;13.40;81.90;;;;;;4988648;28;20058;-73
2022/04/16 05:45:50;;;;;;;8.30;1.92;;;13.30;81.90;;;;;;5000001;28;20159;-73
2022/04/16 05:48:16;;;;;;;4.50;1.30;;;13.60;81.30;;;;;;4989570;28;20649;-73
2022/04/16 05:50:43;;;;;;;3.67;1.50;;;13.60;81.00;;;;;;5006980;28;20041;-73
2022/04/16 05:53:11;;;;;;;4.80;1.52;;;13.70;80.60;;;;;;5003649;28;20022;-73
2022/04/16 05:55:40;;;;;;;5.57;1.75;;;13.70;81.00;;;;;;4987313;28;20034;-73
2022/04/16 05:58:06;;;;;;;3.30;1.50;;;14.00;79.80;;;;;;4987760;28;20030;-73
2022/04/16 06:00:32;;;;;;;3.90;1.63;;;14.20;79.60;;;;;;4987881;28;20124;-73
2022/04/16 06:02:58;;;;;;;4.88;1.70;;;14.10;79.80;;;;;;4987093;28;20485;-73
2022/04/16 06:05:23;;;;;;;4.18;1.80;;;14.20;79.60;;;;;;4988141;28;20521;-73
2022/04/16 06:07:50;;;;;;;3.60;1.48;;;14.40;79.20;;;;;;4992848;28;20034;-73
2022/04/16 06:10:15;;;;;;;7.30;1.67;;;14.50;78.30;;;;;;5004903;28;20021;-73
2022/04/16 06:12:41;;;;;;;5.65;1.83;;;14.60;78.30;;;;;;5004762;28;20475;-73
2022/04/16 06:15:07;;;;;;;5.32;1.80;;;14.60;78.30;;;;;;5004939;28;20048;-73
2022/04/16 06:17:34;;;;;;;5.88;2.22;;;14.60;78.00;;;;;;5006605;28;20049;-73
2022/04/16 06:19:59;;;;;;;4.57;1.60;;;14.60;78.10;;;;;;4998810;28;20046;-73
2022/04/16 06:22:25;;;;;;;2.88;1.52;;;14.60;78.60;;;;;;4987747;28;20058;-73
2022/04/16 06:24:50;;;;;;;5.07;2.10;;;14.60;77.60;;;;;;4986438;28;20046;-73
2022/04/16 06:27:16;;;;;;;4.03;1.52;;;14.70;77.10;;;;;;4987047;28;20030;-73
2022/04/16 06:29:41;;;;;;;5.00;1.75;;;14.80;77.00;;;;;;4987079;28;20389;-73
2022/04/16 06:32:07;;;;;;;8.38;1.85;;;14.80;76.90;;;;;;4986711;28;20018;-73
2022/04/16 06:34:33;;;;;;;3.65;1.75;;;14.90;77.70;;;;;;4987461;28;20054;-73
2022/04/16 06:36:59;;;;;;;5.70;2.83;;;15.00;76.90;;;;;;4987010;28;20050;-73
2022/04/16 06:39:25;;;;;;;6.18;1.88;;;15.20;77.10;;;;;;5003483;28;20037;-73
2022/04/16 06:41:51;;;;;;;6.15;1.65;;;15.40;76.20;;;;;;5005810;28;20052;-73
2022/04/16 06:44:17;;;;;;;3.83;1.52;;;15.70;75.70;;;;;;4994303;28;20036;-73
2022/04/16 06:46:42;;;;;;;6.97;2.00;;;16.00;75.00;;;;;;4993794;28;20066;-73
2022/04/16 06:49:08;;;;;;;5.15;1.65;;;17.20;74.30;;;;;;4991533;28;20026;-73
2022/04/16 06:51:34;;;;;;;2.58;1.25;;;18.20;72.50;;;;;;5008209;28;20041;-73
2022/04/16 06:54:00;;;;;;;4.88;1.60;;;19.40;70.20;;;;;;5006728;28;20429;-73
2022/04/16 06:56:25;;;;;;;5.00;1.52;;;19.80;69.00;;;;;;5008326;28;20046;-72
2022/04/16 06:58:51;;;;;;;3.35;1.40;;;20.60;67.40;;;;;;5005860;28;20121;-73
2022/04/16 07:01:16;;;;;;;5.18;1.65;;;20.20;66.70;;;;;;5006014;28;20469;-73
2022/04/16 07:03:42;;;;;;;5.53;1.80;;;22.20;66.40;;;;;;5003856;28;20022;-73
2022/04/16 07:06:08;;;;;;;4.28;1.23;;;23.90;64.50;;;;;;5005512;28;20472;-73
2022/04/16 07:08:34;;;;;;;4.82;1.40;;;23.90;63.90;;;;;;5003952;28;20029;-74
2022/04/16 07:10:59;;;;;;;3.10;1.40;;;23.40;63.20;;;;;;5004975;28;20763;-74
2022/04/16 07:13:25;;;;;;;2.92;1.13;;;23.80;63.00;;;;;;5003313;28;20021;-73
2022/04/16 07:15:51;;;;;;;3.08;1.50;;;23.70;63.90;;;;;;5002816;28;20045;-74
2022/04/16 07:18:16;;;;;;;4.03;1.33;;;24.70;63.00;;;;;;5001830;28;20509;-74
2022/04/16 07:20:45;;;;;;;2.97;1.30;;;24.90;62.70;;;;;;4985863;28;20480;-73
2022/04/16 07:23:10;;;;;;;2.80;1.55;;;25.40;62.40;;;;;;4985303;28;20462;-73
2022/04/16 07:25:36;;;;;;;8.95;1.58;;;24.80;62.20;;;;;;4996833;28;20033;-73
2022/04/16 07:28:02;;;;;;;6.57;1.60;;;25.50;62.60;;;;;;5003399;28;20037;-73
2022/04/16 07:30:28;;;;;;;4.93;1.70;;;25.40;62.10;;;;;;5004822;28;20041;-74
2022/04/16 07:32:54;;;;;;;5.05;1.50;;;24.10;62.30;;;;;;5004799;28;20056;-74
2022/04/16 07:35:19;;;;;;;5.38;1.45;;;21.00;66.50;;;;;;4996586;28;20038;-73
2022/04/16 07:37:48;;;;;;;2.28;1.20;;;18.10;70.70;;;;;;4985318;28;20108;-73
2022/04/16 07:40:14;;;;;;;6.88;1.77;;;17.40;71.00;;;;;;5004485;28;20416;-73
2022/04/16 07:42:39;;;;;;;3.47;1.33;;;17.40;72.70;;;;;;5002994;28;20093;-74
2022/04/16 07:45:08;;;;;;;5.13;1.45;;;17.40;73.10;;;;;;4992885;28;20656;-73
2022/04/16 07:47:33;;;;;;;4.78;2.08;;;17.20;72.60;;;;;;4998710;28;20058;-73
2022/04/16 07:49:59;;;;;;;5.15;1.30;;;17.00;72.70;;;;;;4991699;28;20544;-73
2022/04/16 07:52:25;;;;;;;3.08;1.33;;;17.30;72.90;;;;;;4994908;28;20034;-73
2022/04/16 07:54:52;;;;;;;4.63;1.55;;;17.40;72.00;;;;;;5011563;28;20026;-73
2022/04/16 07:57:18;;;;;;;4.00;1.00;;;17.50;71.70;;;;;;5005558;28;20049;-73
2022/04/16 07:59:44;;;;;;;4.72;1.40;;;17.60;71.30;;;;;;5009726;28;20038;-73
2022/04/16 08:02:09;;;;;;;3.42;1.35;;;17.70;70.70;;;;;;5009908;28;20038;-72
2022/04/16 08:04:35;;;;;;;2.50;1.65;;;17.40;71.80;;;;;;5010887;28;20030;-73
2022/04/16 08:07:01;;;;;;;3.63;1.05;;;17.20;69.30;;;;;;5009604;28;20022;-73
2022/04/16 08:09:26;;;;;;;1.88;0.85;;;17.30;68.70;;;;;;5011638;28;20038;-73
2022/04/16 08:11:52;;;;;;;3.38;1.20;;;17.50;70.40;;;;;;5009841;28;20472;-73
2022/04/16 08:14:18;;;;;;;4.78;2.20;;;17.50;69.60;;;;;;5011505;28;20126;-73
2022/04/16 08:16:43;;;;;;;2.28;1.00;;;17.60;71.00;;;;;;5003290;28;20034;-73
2022/04/16 08:19:09;;;;;;;2.22;1.08;;;17.70;68.90;;;;;;4991395;28;20104;-73
2022/04/16 08:21:35;;;;;;;2.20;1.15;;;17.60;67.60;;;;;;4992481;28;20117;-73
2022/04/16 08:24:12;;;;;;;2.55;1.13;;;17.60;68.30;;;;;;4991864;28;20030;-73
2022/04/16 08:26:41;;;;;;;3.63;1.23;;;17.80;69.10;;;;;;4992383;28;20030;-73
2022/04/16 08:29:07;;;;;;;4.15;1.20;;;17.70;70.00;;;;;;4991238;28;20031;-73
2022/04/16 08:31:33;;;;;;;2.70;1.38;;;17.70;69.50;;;;;;4997850;28;20057;-73
2022/04/16 08:33:59;;;;;;;3.15;1.48;;;17.60;68.90;;;;;;5008209;28;20091;-73
2022/04/16 08:36:26;;;;;;;3.85;0.98;;;17.80;68.60;;;;;;4998801;28;20050;-72
2022/04/16 08:38:52;;;;;;;4.00;1.10;;;17.90;67.10;;;;;;5010421;28;20030;-73
2022/04/16 08:41:18;;;;;;;4.40;1.10;;;18.10;67.00;;;;;;5010591;28;20041;-74
2022/04/16 08:43:44;;;;;;;7.20;1.48;;;20.80;65.70;;;;;;5010878;28;20022;-73
2022/04/16 08:46:10;;;;;;;2.92;1.02;;;22.70;62.60;;;;;;5010566;28;20440;-73
2022/04/16 08:48:36;;;;;;;2.08;1.10;;;23.60;65.00;;;;;;5010445;28;20022;-73
2022/04/16 08:51:02;;;;;;;7.85;1.38;;;24.00;63.30;;;;;;5009766;28;20109;-73
2022/04/16 08:53:28;;;;;;;1.55;0.82;;;23.30;63.50;;;;;;5008721;28;20022;-73
2022/04/16 08:55:54;;;;;;;4.88;1.20;;;24.30;61.10;;;;;;5010201;28;20042;-73
2022/04/16 08:58:20;;;;;;;4.18;1.17;;;24.10;60.90;;;;;;5010086;28;20073;-73
2022/04/16 09:00:46;;;;;;;3.88;1.25;;;23.30;61.90;;;;;;5009531;28;20412;-73
2022/04/16 09:03:12;;;;;;;5.80;1.55;;;23.10;60.30;;;;;;5010248;28;20091;-73
2022/04/16 09:05:38;;;;;;;2.30;1.02;;;23.30;60.80;;;;;;5009783;28;20738;-73
2022/04/16 09:08:04;;;;;;;4.00;1.50;;;23.40;61.00;;;;;;5009953;28;20079;-73
2022/04/16 09:10:36;;;;;;;4.30;1.30;;;23.50;61.80;;;;;;5010165;28;20069;-73
2022/04/16 09:13:04;;;;;;;1.80;0.60;;;23.80;61.60;;;;;;5007614;28;20033;-73
2022/04/16 09:15:31;;;;;;;2.38;1.00;;;23.30;60.90;;;;;;5009889;28;20029;-73
2022/04/16 09:18:03;;;;;;;1.92;0.95;;;23.00;60.30;;;;;;4996996;28;20034;-74
2022/04/16 09:20:31;;;;;;;5.32;1.20;;;21.70;60.60;;;;;;5008035;28;20037;-73
2022/04/16 09:22:57;;;;;;;3.63;1.50;;;21.40;62.00;;;;;;5005964;28;20610;-73
2022/04/16 09:25:23;;;;;;;3.35;1.10;;;20.70;63.70;;;;;;5009552;28;20030;-73
2022/04/16 09:27:50;;;;;;;2.80;1.20;;;20.20;61.80;;;;;;5009578;28;20025;-73
2022/04/16 09:30:31;;;;;;;2.80;1.13;;;20.00;64.00;;;;;;5017353;28;20484;-73
2022/04/16 09:32:58;;;;;;;5.00;1.30;;;19.90;63.70;;;;;;5009896;28;20050;-73
2022/04/16 09:35:35;;;;;;;2.75;1.10;;;20.20;64.70;;;;;;5008945;28;20387;-73
2022/04/16 09:38:06;;;;;;;11.77;1.73;;;20.20;63.00;;;;;;4992458;28;20645;-74
2022/04/16 09:40:33;;;;;;;4.32;0.90;;;20.30;64.20;;;;;;5000189;28;20065;-74
2022/04/16 09:43:02;;;;;;;5.97;1.50;;;20.30;63.60;;;;;;5000043;28;20071;-74
2022/04/16 09:45:28;;;;;;;4.15;1.40;;;20.40;63.70;;;;;;5005771;28;20045;-73
2022/04/16 09:47:54;;;;;;;4.18;1.67;;;20.40;63.00;;;;;;5005352;28;20461;-73
2022/04/16 09:50:25;;;;;;;4.80;1.10;;;20.60;62.40;;;;;;4997831;28;20049;-74
2022/04/16 09:52:57;;;;;;;9.90;1.70;;;20.80;63.40;;;;;;4992343;28;20030;-74
2022/04/16 09:55:24;;;;;;;1.98;1.00;;;20.70;63.40;;;;;;4996903;28;20053;-74
2022/04/16 09:58:01;;;;;;;3.40;0.93;;;20.70;63.00;;;;;;4997016;28;20049;-73
2022/04/16 10:00:27;;;;;;;4.13;1.10;;;21.00;61.70;;;;;;5005795;28;20132;-74
2022/04/16 10:02:54;;;;;;;2.13;1.00;;;21.00;62.20;;;;;;4996669;28;20029;-74
2022/04/16 10:05:24;;;;;;;3.20;1.02;;;21.00;60.90;;;;;;5005868;28;20085;-73
2022/04/16 10:07:52;;;;;;;1.95;0.82;;;21.10;59.40;;;;;;5001900;28;20662;-74
2022/04/16 10:10:23;;;;;;;2.10;0.63;;;21.40;59.20;;;;;;5007395;28;20072;-74
2022/04/16 10:12:59;;;;;;;3.15;1.20;;;21.30;57.50;;;;;;5008635;28;20025;-74
2022/04/16 10:15:48;;;;;;;2.20;1.02;;;21.40;60.30;;;;;;5008523;28;20442;-73
2022/04/16 10:18:14;;;;;;;20.25;1.63;;;21.10;57.20;;;;;;5008646;28;20066;-73
2022/04/16 10:21:00;;;;;;;2.90;0.70;;;21.40;57.20;;;;;;5008867;28;20061;-73
2022/04/16 10:23:36;;;;;;;2.95;0.90;;;21.40;59.50;;;;;;5009242;28;20037;-74
2022/04/16 10:26:10;;;;;;;6.13;1.00;;;21.60;58.20;;;;;;5008895;28;20026;-73
2022/04/16 10:28:42;;;;;;;2.08;0.80;;;21.50;57.90;;;;;;5008668;28;20168;-74
2022/04/16 10:31:29;;;;;;;3.22;1.00;;;22.00;60.10;;;;;;4994574;28;20030;-74
2022/04/16 10:33:59;;;;;;;4.75;0.85;;;21.90;56.90;;;;;;5000331;28;20389;-74
2022/04/16 10:36:36;;;;;;;8.82;1.30;;;21.70;55.80;;;;;;4989295;28;20129;-73
2022/04/16 10:39:16;;;;;;;1.65;0.80;;;22.00;56.70;;;;;;4992840;28;20029;-73
2022/04/16 10:42:10;;;;;;;2.67;0.70;;;22.10;55.90;;;;;;5001089;28;20145;-73
2022/04/16 10:44:44;;;;;;;2.67;0.82;;;22.10;56.00;;;;;;5007835;28;20026;-73
2022/04/16 10:47:14;;;;;;;;;;;22.10;57.20;;;;;;5005881;28;20152;-74
2022/04/16 10:49:41;;;;;;;2.50;0.90;;;22.30;56.90;;;;;;5006548;28;19991;-74
2022/04/16 10:52:23;;;;;;;6.03;0.98;;;22.40;57.80;;;;;;5007817;28;20418;-74
2022/04/16 10:55:05;;;;;;;3.75;0.90;;;22.30;55.60;;;;;;5007171;28;20044;-73
2022/04/16 10:57:30;;;;;;;2.05;0.90;;;22.30;55.70;;;;;;4988082;28;20049;-73
2022/04/16 10:59:56;;;;;;;2.28;0.80;;;22.40;55.70;;;;;;4988195;28;20380;-73
2022/04/16 11:02:25;;;;;;;5.30;1.10;;;22.30;54.00;;;;;;4988363;28;20030;-73
2022/04/16 11:04:57;;;;;;;1.38;0.80;;;22.50;56.70;;;;;;4988059;28;20429;-73
2022/04/16 11:07:24;;;;;;;2.65;0.77;;;22.80;57.00;;;;;;4988381;28;20061;-73
2022/04/16 11:09:53;;;;;;;2.13;0.95;;;22.80;55.30;;;;;;4987209;28;20034;-73
2022/04/16 11:12:23;;;;;;;1.00;0.52;;;22.70;55.50;;;;;;4988550;28;20026;-74
2022/04/16 11:14:50;;;;;;;2.15;0.90;;;22.90;56.20;;;;;;4987032;28;20097;-73
2022/04/16 11:17:16;;;;;;;1.92;0.60;;;22.80;56.50;;;;;;4989340;28;20034;-73
2022/04/16 11:19:44;;;;;;;2.42;1.02;;;22.80;55.70;;;;;;4987778;28;20476;-74
2022/04/16 11:22:10;;;;;;;2.75;0.90;;;22.70;54.90;;;;;;4987179;28;21164;-74
2022/04/16 11:24:36;;;;;;;3.00;0.80;;;22.80;54.70;;;;;;4989501;28;20030;-73
2022/04/16 11:35:14;;;;;;;1.23;0.60;;;23.10;54.30;;;;;;4987738;28;20087;-73
2022/04/16 11:37:40;;;;;;;10.43;1.30;;;23.00;54.80;;;;;;4987928;28;20035;-74
2022/04/16 11:40:08;;;;;;;7.40;1.10;;;23.40;55.10;;;;;;4988301;28;20451;-74
2022/04/16 11:42:34;;;;;;;2.25;1.00;;;23.90;55.60;;;;;;4988268;28;20469;-73
2022/04/16 11:45:00;;;;;;;3.42;1.20;;;23.60;54.30;;;;;;4987952;28;20117;-73
2022/04/16 11:47:27;;;;;;;7.38;2.25;;;23.60;54.50;;;;;;4987898;28;20098;-73
2022/04/16 11:49:55;;;;;;;5.68;1.25;;;23.80;55.50;;;;;;4987716;28;20033;-73
2022/04/16 11:52:30;;;;;;;2.60;0.80;;;23.80;54.40;;;;;;4987834;28;20630;-73
2022/04/16 11:55:16;;;;;;;4.57;1.13;;;24.10;55.00;;;;;;4987828;28;20034;-73
2022/04/16 11:57:52;;;;;;;2.88;1.00;;;24.00;57.00;;;;;;4987793;28;20072;-73
2022/04/16 12:00:20;;;;;;;2.97;0.80;;;23.60;54.00;;;;;;4988087;28;20022;-74
2022/04/16 12:02:49;;;;;;;7.65;1.55;;;23.40;53.10;;;;;;4987946;28;20105;-73
2022/04/16 12:05:27;;;;;;;3.97;1.00;;;23.70;53.60;;;;;;4987355;28;20062;-73
2022/04/16 12:07:53;;;;;;;10.10;2.03;;;23.60;54.00;;;;;;4987847;28;20091;-73
2022/04/16 12:10:20;;;;;;;2.63;1.00;;;23.30;52.80;;;;;;4987655;28;20034;-73
2022/04/16 12:12:52;;;;;;;7.45;1.00;;;23.40;55.80;;;;;;4987605;28;20143;-73
2022/04/16 12:15:29;;;;;;;2.38;0.98;;;23.30;54.20;;;;;;4987501;28;20022;-73
2022/04/16 12:17:56;;;;;;;3.92;1.00;;;23.80;54.20;;;;;;4987266;28;20031;-73
2022/04/16 12:20:23;;;;;;;3.85;1.10;;;23.90;54.60;;;;;;4987633;28;20045;-73
2022/04/16 12:23:00;;;;;;;6.70;1.10;;;24.30;54.40;;;;;;4987538;28;20465;-73
2022/04/16 12:25:26;;;;;;;5.30;1.00;;;24.20;54.10;;;;;;4987289;28;20089;-73
2022/04/16 12:27:57;;;;;;;5.32;1.05;;;23.50;53.40;;;;;;4987326;28;20030;-73
2022/04/16 12:30:25;;;;;;;2.63;0.90;;;23.00;53.20;;;;;;4987300;28;20138;-73
2022/04/16 12:32:55;;;;;;;9.23;1.40;;;22.70;53.60;;;;;;4987656;28;20073;-73
2022/04/16 12:35:21;;;;;;;8.68;1.45;;;22.50;54.00;;;;;;4989565;28;20034;-73
2022/04/16 12:37:47;;;;;;;10.77;1.50;;;22.40;53.40;;;;;;4991383;28;20036;-73
2022/04/16 12:40:12;;;;;;;16.40;1.83;;;22.10;53.40;;;;;;4991532;28;20038;-73
2022/04/16 12:42:38;;;;;;;3.33;1.05;;;22.00;53.50;;;;;;4991368;28;20034;-73
2022/04/16 12:45:04;;;;;;;6.15;1.10;;;21.80;53.40;;;;;;4991012;28;20426;-74
2022/04/16 12:47:29;;;;;;;1.92;1.20;;;21.70;54.10;;;;;;4991155;28;20148;-73
2022/04/16 12:49:55;;;;;;;3.95;1.05;;;21.80;54.10;;;;;;4990781;28;20504;-73
2022/04/16 12:52:21;;;;;;;1.83;0.90;;;22.50;55.50;;;;;;4990478;28;20019;-73
2022/04/16 12:54:46;;;;;;;5.93;1.23;;;22.90;55.60;;;;;;4990394;28;20064;-73
2022/04/16 12:57:12;;;;;;;3.78;1.15;;;23.20;52.80;;;;;;4990258;28;20045;-73
2022/04/16 12:59:37;;;;;;;10.25;1.30;;;23.50;53.30;;;;;;4990720;28;20054;-73
2022/04/16 13:02:03;;;;;;;7.68;1.20;;;23.70;53.60;;;;;;4991044;28;20057;-73
2022/04/16 13:04:30;;;;;;;2.95;0.93;;;23.20;52.40;;;;;;4989378;28;20030;-73
2022/04/16 13:06:56;;;;;;;2.15;1.00;;;22.80;51.70;;;;;;4990424;28;20038;-73
2022/04/16 13:09:22;;;;;;;3.75;0.60;;;22.80;53.10;;;;;;4990496;28;20453;-73